createdAt,value
2022-09-07T00:01:24.510Z,2.30
2022-09-07T00:03:56.919Z,2.10
2022-09-07T00:06:26.751Z,2.27
2022-09-07T00:08:55.231Z,2.00
2022-09-07T00:11:24.050Z,2.17
2022-09-07T00:13:54.659Z,2.00
2022-09-07T00:16:28.011Z,2.33
2022-09-07T00:18:57.222Z,2.17
2022-09-07T00:21:25.950Z,2.13
2022-09-07T00:23:55.150Z,2.30
2022-09-07T00:26:26.388Z,2.10
2022-09-07T00:28:57.908Z,2.00
2022-09-07T00:31:28.930Z,2.30
2022-09-07T00:34:00.904Z,2.20
2022-09-07T00:36:29.468Z,1.83
2022-09-07T00:38:58.862Z,1.87
2022-09-07T00:41:27.548Z,2.17
2022-09-07T00:43:58.364Z,2.00
2022-09-07T00:46:32.345Z,2.40
2022-09-07T00:49:04.395Z,2.33
2022-09-07T00:51:38.654Z,2.40
2022-09-07T00:54:11.515Z,2.30
2022-09-07T00:56:43.527Z,1.93
2022-09-07T00:59:13.923Z,2.00
2022-09-07T01:01:44.307Z,2.20
2022-09-07T01:04:13.048Z,1.87
2022-09-07T01:06:43.398Z,2.00
2022-09-07T01:09:14.159Z,1.93
2022-09-07T01:11:45.303Z,1.90
2022-09-07T01:14:16.895Z,2.10
2022-09-07T01:17:01.035Z,1.90
2022-09-07T01:20:06.438Z,2.53
2022-09-07T01:23:02.016Z,2.17
2022-09-07T01:25:42.524Z,1.90
2022-09-07T01:28:21.793Z,2.07
2022-09-07T01:30:57.422Z,2.50
2022-09-07T01:33:45.138Z,2.07
2022-09-07T01:36:23.340Z,2.13
2022-09-07T01:38:55.577Z,2.50
2022-09-07T01:41:30.854Z,2.13
2022-09-07T01:44:06.933Z,2.10
2022-09-07T01:46:41.164Z,2.10
2022-09-07T01:49:13.453Z,2.53
2022-09-07T01:51:46.494Z,2.27
2022-09-07T01:54:19.857Z,2.20
2022-09-07T01:56:51.177Z,2.20
2022-09-07T01:59:25.902Z,2.03
2022-09-07T02:01:59.617Z,2.20
2022-09-07T02:04:36.332Z,2.00
2022-09-07T02:07:11.537Z,2.10
2022-09-07T02:09:44.981Z,2.40
2022-09-07T02:12:19.121Z,1.80
2022-09-07T02:14:54.424Z,2.00
2022-09-07T02:17:28.146Z,2.10
2022-09-07T02:20:01.589Z,1.93
2022-09-07T02:22:34.566Z,2.40
2022-09-07T02:25:05.918Z,1.90
2022-09-07T02:27:41.124Z,2.40
2022-09-07T02:30:12.674Z,2.37
2022-09-07T02:32:41.345Z,1.80
2022-09-07T02:35:10.587Z,2.27
2022-09-07T02:37:41.173Z,1.90
2022-09-07T02:40:10.835Z,2.30
2022-09-07T02:42:40.607Z,2.23
2022-09-07T02:45:12.869Z,2.20
2022-09-07T02:47:53.757Z,2.00
2022-09-07T02:50:44.344Z,1.87
2022-09-07T02:53:44.967Z,2.10
2022-09-07T02:56:24.289Z,1.97
2022-09-07T02:59:05.182Z,2.47
2022-09-07T03:01:45.533Z,2.10
2022-09-07T03:04:20.078Z,2.03
2022-09-07T03:06:52.575Z,2.03
2022-09-07T03:09:27.315Z,2.23
2022-09-07T03:11:56.166Z,2.03
2022-09-07T03:14:30.639Z,2.73
2022-09-07T03:17:04.198Z,2.53
2022-09-07T03:19:32.664Z,2.10
2022-09-07T03:22:02.544Z,2.10
2022-09-07T03:24:30.966Z,2.50
2022-09-07T03:27:00.754Z,2.43
2022-09-07T03:29:31.975Z,2.20
2022-09-07T03:32:00.580Z,2.30
2022-09-07T03:34:31.587Z,2.33
2022-09-07T03:37:00.379Z,2.20
2022-09-07T03:39:31.179Z,2.27
2022-09-07T03:42:00.266Z,2.33
2022-09-07T03:44:29.061Z,2.20
2022-09-07T03:46:57.535Z,2.40
2022-09-07T03:49:25.944Z,2.17
2022-09-07T03:51:55.795Z,2.50
2022-09-07T03:54:24.941Z,2.40
2022-09-07T03:56:53.728Z,2.20
2022-09-07T03:59:22.209Z,2.20
2022-09-07T04:01:50.799Z,2.00
2022-09-07T04:04:21.005Z,2.77
2022-09-07T04:06:50.244Z,2.30
2022-09-07T04:09:22.031Z,1.90
2022-09-07T04:11:50.422Z,2.40
2022-09-07T04:14:18.960Z,2.30
2022-09-07T04:16:47.905Z,2.53
2022-09-07T04:19:16.670Z,2.60
2022-09-07T04:21:47.535Z,3.00
2022-09-07T04:24:16.959Z,2.40
2022-09-07T04:26:47.176Z,2.63
2022-09-07T04:29:16.477Z,2.30
2022-09-07T04:31:44.886Z,2.60
2022-09-07T04:34:16.214Z,2.47
2022-09-07T04:36:44.688Z,2.60
2022-09-07T04:39:13.255Z,2.73
2022-09-07T04:41:41.705Z,2.47
2022-09-07T04:44:16.114Z,2.57
2022-09-07T04:46:45.269Z,2.90
2022-09-07T04:49:13.897Z,2.73
2022-09-07T04:51:44.673Z,2.67
2022-09-07T04:54:13.263Z,2.57
2022-09-07T04:56:41.761Z,2.60
2022-09-07T04:59:11.846Z,2.57
2022-09-07T05:01:40.175Z,2.83
2022-09-07T05:04:08.853Z,2.77
2022-09-07T05:06:38.255Z,3.03
2022-09-07T05:09:06.609Z,2.23
2022-09-07T05:11:35.273Z,2.97
2022-09-07T05:14:05.324Z,2.77
2022-09-07T05:16:35.852Z,2.57
2022-09-07T05:19:05.900Z,2.80
2022-09-07T05:21:35.673Z,2.70
2022-09-07T05:24:05.403Z,2.80
2022-09-07T05:26:36.116Z,2.93
2022-09-07T05:31:56.152Z,2.87
2022-09-07T05:36:56.429Z,2.77
2022-09-07T05:39:25.363Z,2.70
2022-09-07T05:41:53.878Z,3.03
2022-09-07T05:47:13.984Z,2.57
2022-09-07T05:49:42.333Z,2.87
2022-09-07T05:52:11.379Z,3.00
2022-09-07T05:54:40.238Z,2.70
2022-09-07T05:57:11.888Z,2.97
2022-09-07T05:59:40.366Z,2.77
2022-09-07T06:02:11.626Z,2.70
2022-09-07T06:04:41.405Z,3.20
2022-09-07T06:07:22.422Z,2.87
2022-09-07T06:12:40.232Z,3.13
2022-09-07T06:15:11.549Z,2.97
2022-09-07T06:17:40.051Z,2.77
2022-09-07T06:20:11.511Z,2.83
2022-09-07T06:22:39.865Z,2.77
2022-09-07T06:25:08.687Z,3.10
2022-09-07T06:27:37.242Z,3.53
2022-09-07T06:30:07.496Z,3.10
2022-09-07T06:32:45.697Z,3.10
2022-09-07T06:35:16.303Z,3.33
2022-09-07T06:37:45.320Z,3.20
2022-09-07T06:40:14.104Z,3.13
2022-09-07T06:42:43.741Z,2.70
2022-09-07T06:45:13.032Z,2.90
2022-09-07T06:47:41.790Z,2.80
2022-09-07T06:50:12.677Z,3.60
2022-09-07T06:55:32.045Z,3.00
2022-09-07T06:58:00.471Z,3.23
2022-09-07T07:00:28.960Z,3.67
2022-09-07T07:02:57.714Z,3.50
2022-09-07T07:05:26.315Z,3.40
2022-09-07T07:07:56.726Z,2.97
2022-09-07T07:10:25.334Z,2.90
2022-09-07T07:12:57.731Z,3.67
2022-09-07T07:15:29.115Z,3.50
2022-09-07T07:18:02.640Z,3.17
2022-09-07T07:20:38.916Z,3.33
2022-09-07T07:23:12.495Z,3.67
2022-09-07T07:25:40.878Z,3.37
2022-09-07T07:30:58.918Z,3.17
2022-09-07T07:33:31.671Z,3.50
2022-09-07T07:36:11.939Z,3.60
2022-09-07T07:44:21.844Z,3.50
2022-09-07T07:46:51.432Z,3.60
2022-09-07T07:49:21.205Z,3.70
2022-09-07T07:54:39.776Z,3.07
2022-09-07T07:57:08.604Z,3.60
2022-09-07T07:59:37.151Z,3.00
2022-09-07T08:02:06.108Z,3.57
2022-09-07T08:04:35.814Z,3.83
2022-09-07T08:07:10.261Z,3.57
2022-09-07T08:09:41.854Z,4.33
2022-09-07T08:12:11.485Z,3.60
2022-09-07T08:14:42.262Z,4.30
2022-09-07T08:17:11.919Z,3.93
2022-09-07T08:19:40.741Z,3.57
2022-09-07T08:22:12.057Z,4.00
2022-09-07T08:24:41.885Z,3.80
2022-09-07T08:27:10.611Z,4.10
2022-09-07T08:29:39.695Z,4.07
2022-09-07T08:32:08.535Z,4.00
2022-09-07T08:34:38.558Z,4.17
2022-09-07T08:37:07.330Z,4.00
2022-09-07T08:39:35.952Z,4.27
2022-09-07T08:42:43.600Z,3.97
2022-09-07T08:45:16.245Z,3.93
2022-09-07T08:47:48.803Z,4.30
2022-09-07T08:50:23.478Z,3.73
2022-09-07T08:52:56.951Z,4.27
2022-09-07T08:55:29.164Z,4.10
2022-09-07T08:58:22.220Z,4.23
2022-09-07T09:06:44.385Z,4.40
2022-09-07T09:09:21.821Z,3.83
2022-09-07T09:11:59.652Z,4.70
2022-09-07T09:14:39.323Z,4.20
2022-09-07T09:17:12.988Z,4.90
2022-09-07T09:19:57.395Z,3.93
2022-09-07T09:22:28.750Z,3.80
2022-09-07T09:25:06.094Z,4.57
2022-09-07T09:27:34.849Z,4.20
2022-09-07T09:30:14.506Z,4.40
2022-09-07T09:32:44.973Z,3.90
2022-09-07T09:35:21.173Z,4.53
2022-09-07T09:37:49.659Z,5.20
2022-09-07T09:40:27.447Z,4.50
2022-09-07T09:43:04.891Z,5.03
2022-09-07T09:48:33.788Z,4.53
2022-09-07T09:54:07.435Z,4.27
2022-09-07T09:56:42.009Z,4.80
2022-09-07T10:05:29.575Z,4.70
2022-09-07T10:07:58.730Z,5.30
2022-09-07T10:10:28.636Z,6.10
2022-09-07T10:12:57.677Z,5.00
2022-09-07T10:15:41.380Z,5.23
2022-09-07T10:18:21.421Z,5.90
2022-09-07T10:20:50.105Z,5.80
2022-09-07T10:23:23.839Z,5.03
2022-09-07T10:25:52.499Z,5.87
2022-09-07T10:28:25.196Z,5.33
2022-09-07T10:31:14.784Z,4.73
2022-09-07T10:36:50.149Z,4.93
2022-09-07T10:39:24.952Z,5.37
2022-09-07T10:42:02.139Z,5.10
2022-09-07T10:44:54.043Z,5.40
2022-09-07T10:47:33.491Z,5.67
2022-09-07T10:50:24.484Z,5.33
2022-09-07T10:53:23.628Z,5.63
2022-09-07T10:56:02.452Z,5.67
2022-09-07T11:01:45.870Z,5.50
2022-09-07T11:04:47.584Z,5.47
2022-09-07T11:07:44.609Z,5.23
2022-09-07T11:10:24.560Z,5.00
2022-09-07T11:12:55.557Z,5.37
2022-09-07T11:15:27.634Z,4.90
2022-09-07T11:18:00.800Z,5.30
2022-09-07T11:20:32.799Z,5.57
2022-09-07T11:23:15.806Z,5.37
2022-09-07T11:26:00.170Z,5.63
2022-09-07T11:28:34.140Z,6.40
2022-09-07T11:31:08.803Z,5.63
2022-09-07T11:34:23.412Z,5.77
2022-09-07T11:36:39.178Z,6.20
2022-09-07T11:39:18.087Z,6.40
2022-09-07T11:41:52.855Z,5.63
2022-09-07T11:44:27.151Z,6.40
2022-09-07T11:47:00.407Z,5.50
2022-09-07T11:49:30.985Z,6.17
2022-09-07T11:52:05.301Z,5.57
2022-09-07T11:54:49.201Z,5.60
2022-09-07T11:57:41.036Z,6.23
2022-09-07T12:00:14.974Z,6.00
2022-09-07T12:03:26.758Z,6.20
2022-09-07T12:06:30.252Z,5.67
2022-09-07T12:09:13.589Z,5.73
2022-09-07T12:12:12.379Z,5.83
2022-09-07T12:14:52.080Z,5.40
2022-09-07T12:17:38.414Z,6.00
2022-09-07T12:20:18.886Z,6.50
2022-09-07T12:23:05.088Z,5.80
2022-09-07T12:25:35.966Z,5.23
2022-09-07T12:28:08.038Z,5.60
2022-09-07T12:30:58.958Z,5.70
2022-09-07T12:33:35.867Z,5.20
2022-09-07T12:36:48.354Z,5.33
2022-09-07T12:39:25.368Z,6.30
2022-09-07T12:42:32.258Z,6.50
2022-09-07T12:45:34.161Z,6.53
2022-09-07T12:48:12.269Z,5.97
2022-09-07T12:50:51.172Z,5.70
2022-09-07T12:53:31.432Z,5.77
2022-09-07T12:56:38.764Z,6.17
2022-09-07T12:59:30.468Z,6.23
2022-09-07T13:02:08.289Z,6.00
2022-09-07T13:04:53.606Z,5.47
2022-09-07T13:08:08.014Z,6.20
2022-09-07T13:10:39.311Z,6.53
2022-09-07T13:13:18.495Z,6.73
2022-09-07T13:15:49.305Z,6.50
2022-09-07T13:18:44.099Z,5.67
2022-09-07T13:21:42.880Z,5.97
2022-09-07T13:24:52.863Z,6.30
2022-09-07T13:27:51.344Z,6.60
2022-09-07T13:30:47.167Z,6.97
2022-09-07T13:33:37.681Z,5.83
2022-09-07T13:36:07.865Z,6.10
2022-09-07T13:38:41.973Z,6.17
2022-09-07T13:41:16.790Z,6.47
2022-09-07T13:43:49.405Z,5.83
2022-09-07T13:46:44.130Z,5.97
2022-09-07T13:49:27.586Z,5.43
2022-09-07T13:52:04.954Z,5.70
2022-09-07T13:54:56.513Z,5.97
2022-09-07T13:57:30.200Z,6.43
2022-09-07T14:00:00.083Z,6.40
2022-09-07T14:02:32.960Z,5.77
2022-09-07T14:05:02.500Z,5.70
2022-09-07T14:07:32.312Z,6.10
2022-09-07T14:10:14.372Z,5.67
2022-09-07T14:12:45.462Z,5.40
2022-09-07T14:15:22.902Z,5.47
2022-09-07T14:17:56.748Z,5.53
2022-09-07T14:20:26.815Z,5.83
2022-09-07T14:22:55.266Z,5.13
2022-09-07T14:25:26.693Z,5.93
2022-09-07T14:27:57.047Z,6.10
2022-09-07T14:30:29.349Z,5.97
2022-09-07T14:33:02.069Z,5.47
2022-09-07T14:35:35.740Z,5.80
2022-09-07T14:38:12.788Z,6.10
2022-09-07T14:40:43.391Z,6.20
2022-09-07T14:43:30.723Z,5.33
2022-09-07T14:46:18.808Z,5.60
2022-09-07T14:48:49.876Z,5.73
2022-09-07T14:51:32.692Z,5.40
2022-09-07T14:54:06.898Z,5.30
2022-09-07T14:56:38.565Z,5.60
2022-09-07T14:59:29.114Z,5.60
2022-09-07T15:02:24.142Z,5.87
2022-09-07T15:05:25.466Z,5.17
2022-09-07T15:07:55.905Z,5.80
2022-09-07T15:10:37.165Z,6.10
2022-09-07T15:13:23.692Z,5.70
2022-09-07T15:16:01.568Z,5.53
2022-09-07T15:18:54.516Z,5.17
2022-09-07T15:21:27.580Z,5.43
2022-09-07T15:23:59.365Z,5.80
2022-09-07T15:29:29.748Z,5.47
2022-09-07T15:32:03.733Z,5.83
2022-09-07T15:34:34.561Z,5.70
2022-09-07T15:37:04.086Z,5.90
2022-09-07T15:39:53.074Z,6.60
2022-09-07T15:45:12.690Z,5.60
2022-09-07T15:47:43.760Z,5.27
2022-09-07T15:50:15.772Z,5.67
2022-09-07T15:52:46.514Z,5.83
2022-09-07T15:55:17.594Z,5.70
2022-09-07T15:57:49.240Z,6.27
2022-09-07T16:00:21.679Z,5.27
2022-09-07T16:03:07.427Z,5.90
2022-09-07T16:05:36.774Z,5.87
2022-09-07T16:10:55.817Z,5.27
2022-09-07T16:13:32.936Z,5.43
2022-09-07T16:16:05.982Z,5.17
2022-09-07T16:18:35.418Z,5.33
2022-09-07T16:21:11.806Z,5.70
2022-09-07T16:23:43.249Z,5.53
2022-09-07T16:26:14.907Z,5.40
2022-09-07T16:28:45.485Z,5.83
2022-09-07T16:31:17.400Z,5.23
2022-09-07T16:33:46.331Z,6.20
2022-09-07T16:36:16.700Z,5.60
2022-09-07T16:38:48.734Z,5.60
2022-09-07T16:41:20.761Z,5.10
2022-09-07T16:43:49.539Z,5.47
2022-09-07T16:46:22.082Z,5.60
2022-09-07T16:48:51.852Z,5.37
2022-09-07T16:51:21.942Z,5.23
2022-09-07T16:53:52.219Z,5.13
2022-09-07T16:56:25.856Z,5.47
2022-09-07T16:58:57.703Z,5.63
2022-09-07T17:01:30.870Z,5.60
2022-09-07T17:03:59.846Z,6.17
2022-09-07T17:06:31.045Z,5.60
2022-09-07T17:09:00.372Z,5.40
2022-09-07T17:11:30.947Z,5.60
2022-09-07T17:14:00.491Z,6.13
2022-09-07T17:16:33.131Z,5.60
2022-09-07T17:21:55.202Z,6.00
2022-09-07T17:24:25.862Z,6.00
2022-09-07T17:26:54.327Z,5.90
2022-09-07T17:29:22.696Z,5.93
2022-09-07T17:34:40.983Z,4.83
2022-09-07T17:37:10.582Z,3.63
2022-09-07T17:39:39.903Z,3.93
2022-09-07T17:42:09.757Z,4.20
2022-09-07T17:44:38.603Z,3.30
2022-09-07T17:47:08.613Z,3.07
2022-09-07T17:49:37.139Z,3.20
2022-09-07T17:52:05.857Z,3.00
2022-09-07T17:54:34.196Z,3.13
2022-09-07T17:57:03.247Z,3.00
2022-09-07T18:02:23.775Z,3.40
2022-09-07T18:04:53.927Z,4.03
2022-09-07T18:07:22.495Z,3.63
2022-09-07T18:09:50.889Z,3.70
2022-09-07T18:12:19.436Z,3.50
2022-09-07T18:14:48.088Z,3.73
2022-09-07T18:17:16.475Z,3.80
2022-09-07T18:19:46.968Z,3.87
2022-09-07T18:22:15.938Z,3.80
2022-09-07T18:24:44.592Z,3.90
2022-09-07T18:27:13.106Z,4.20
2022-09-07T18:29:41.948Z,4.67
2022-09-07T18:32:10.402Z,4.40
2022-09-07T18:34:41.294Z,4.80
2022-09-07T18:37:13.352Z,4.60
2022-09-07T18:39:42.110Z,5.07
2022-09-07T18:42:11.182Z,5.20
2022-09-07T18:47:29.555Z,4.73
2022-09-07T18:49:58.557Z,5.23
2022-09-07T18:55:18.147Z,5.20
2022-09-07T18:57:46.765Z,5.20
2022-09-07T19:00:15.432Z,5.53
2022-09-07T19:02:43.916Z,6.40
2022-09-07T19:08:05.925Z,6.20
2022-09-07T19:10:38.507Z,5.77
2022-09-07T19:13:07.732Z,6.20
2022-09-07T19:15:37.673Z,6.13
2022-09-07T19:18:07.791Z,6.10
2022-09-07T19:20:37.222Z,6.30
2022-09-07T19:23:07.736Z,6.13
2022-09-07T19:25:40.735Z,5.60
2022-09-07T19:28:09.238Z,5.87
2022-09-07T19:30:37.644Z,5.37
2022-09-07T19:33:10.017Z,5.30
2022-09-07T19:35:38.379Z,5.87
2022-09-07T19:38:08.280Z,5.37
2022-09-07T19:40:36.610Z,5.97
2022-09-07T19:43:04.990Z,5.87
2022-09-07T19:45:33.472Z,6.03
2022-09-07T19:48:01.842Z,5.90
2022-09-07T19:50:30.245Z,5.63
2022-09-07T19:52:59.199Z,6.10
2022-09-07T19:55:29.106Z,5.53
2022-09-07T19:57:57.454Z,5.80
2022-09-07T20:00:27.052Z,6.00
2022-09-07T20:02:56.002Z,5.47
2022-09-07T20:05:29.273Z,5.57
2022-09-07T20:07:58.541Z,5.90
2022-09-07T20:10:28.502Z,5.00
2022-09-07T20:12:56.949Z,5.23
2022-09-07T20:15:25.583Z,5.53
2022-09-07T20:17:54.779Z,5.30
2022-09-07T20:20:23.471Z,5.20
2022-09-07T20:22:51.928Z,5.70
2022-09-07T20:25:20.527Z,6.10
2022-09-07T20:27:50.488Z,5.53
2022-09-07T20:30:19.205Z,5.03
2022-09-07T20:32:47.890Z,5.03
2022-09-07T20:35:16.331Z,5.93
2022-09-07T20:37:45.175Z,5.47
2022-09-07T20:40:13.678Z,5.43
2022-09-07T20:42:42.185Z,5.57
2022-09-07T20:45:12.606Z,5.30
2022-09-07T20:47:40.989Z,5.60
2022-09-07T20:50:10.072Z,5.33
2022-09-07T20:52:38.513Z,5.57
2022-09-07T20:55:08.093Z,5.83
2022-09-07T20:57:38.076Z,5.90
2022-09-07T21:00:08.239Z,5.70
2022-09-07T21:02:37.963Z,5.50
2022-09-07T21:05:09.405Z,5.73
2022-09-07T21:07:39.834Z,5.50
2022-09-07T21:10:10.515Z,5.80
2022-09-07T21:12:38.802Z,5.57
2022-09-07T21:15:09.057Z,5.73
2022-09-07T21:17:39.617Z,5.80
2022-09-07T21:20:08.424Z,5.67
2022-09-07T21:22:37.027Z,5.80
2022-09-07T21:25:05.939Z,5.03
2022-09-07T21:27:38.799Z,5.53
2022-09-07T21:30:08.807Z,5.57
2022-09-07T21:32:40.480Z,5.10
2022-09-07T21:35:10.831Z,5.10
2022-09-07T21:37:40.184Z,4.93
2022-09-07T21:40:09.663Z,5.07
2022-09-07T21:42:38.322Z,4.63
2022-09-07T21:45:07.674Z,5.00
2022-09-07T21:47:36.032Z,5.10
2022-09-07T21:50:06.815Z,4.33
2022-09-07T21:52:35.364Z,5.23
2022-09-07T21:55:03.884Z,4.90
2022-09-07T21:57:32.407Z,4.37
2022-09-07T22:00:00.798Z,4.47
2022-09-07T22:02:29.509Z,5.37
2022-09-07T22:04:57.777Z,4.77
2022-09-07T22:07:27.594Z,4.13
2022-09-07T22:09:55.995Z,5.13
2022-09-07T22:12:24.810Z,4.40
2022-09-07T22:14:53.272Z,5.03
2022-09-07T22:17:21.822Z,4.67
2022-09-07T22:19:50.326Z,4.87
2022-09-07T22:22:18.889Z,4.43
2022-09-07T22:24:49.257Z,4.40
2022-09-07T22:27:17.656Z,5.17
2022-09-07T22:29:46.063Z,4.33
2022-09-07T22:32:16.317Z,5.10
2022-09-07T22:34:44.703Z,4.23
2022-09-07T22:37:13.122Z,4.33
2022-09-07T22:39:41.528Z,4.50
2022-09-07T22:42:11.483Z,4.43
2022-09-07T22:44:40.532Z,4.80
2022-09-07T22:47:10.215Z,4.57
2022-09-07T22:49:38.647Z,4.50
2022-09-07T22:52:07.016Z,4.53
2022-09-07T22:54:35.472Z,4.60
2022-09-07T22:57:04.194Z,5.30
2022-09-07T22:59:34.210Z,4.73
2022-09-07T23:02:02.652Z,4.60
2022-09-07T23:04:31.972Z,4.73
2022-09-07T23:07:00.519Z,4.50
2022-09-07T23:09:30.084Z,4.47
2022-09-07T23:12:02.252Z,4.60
2022-09-07T23:14:37.615Z,4.43
2022-09-07T23:17:08.731Z,4.10
2022-09-07T23:19:37.958Z,4.50
2022-09-07T23:22:09.679Z,4.47
2022-09-07T23:24:42.153Z,4.30
2022-09-07T23:27:10.582Z,4.20
2022-09-07T23:29:40.373Z,3.90
2022-09-07T23:32:08.644Z,4.47
2022-09-07T23:34:37.422Z,4.40
2022-09-07T23:37:05.788Z,3.87
2022-09-07T23:39:34.211Z,3.73
2022-09-07T23:42:02.882Z,4.20
2022-09-07T23:44:31.191Z,4.27
2022-09-07T23:47:00.888Z,3.93
2022-09-07T23:49:29.250Z,4.37
2022-09-07T23:51:57.705Z,3.90
2022-09-07T23:54:26.039Z,4.07
2022-09-07T23:56:54.588Z,4.27
2022-09-07T23:59:23.039Z,4.30
